Time;durP1;ratioP1;P1;durP2;ratioP2;P2;SDS_P1;SDS_P2;PMS_P1;PMS_P2;Temp;Humidity;BMP_temperature;BMP_pressure;BME280_temperature;BME280_humidity;BME280_pressure;Samples;Min_cycle;Max_cycle;Signal;HPM_P1;HPM_P2
2023/10/15 00:01:25;;;;;;;8.30;2.80;;;;;;;11.02;80.41;100043.41;105186;1267;102762;-80
2023/10/15 00:04:12;;;;;;;8.60;2.80;;;;;;;10.97;80.47;100047.19;105275;1267;100037;-78
2023/10/15 00:06:58;;;;;;;9.90;2.60;;;;;;;10.92;80.65;100048.19;105104;1270;98503;-79
2023/10/15 00:09:43;;;;;;;6.30;3.10;;;;;;;10.88;80.61;100052.38;105250;1267;97875;-79
2023/10/15 00:12:30;;;;;;;6.90;2.30;;;;;;;10.86;80.65;100049.11;105187;1270;98079;-79
2023/10/15 00:15:23;;;;;;;7.40;2.50;;;;;;;10.80;80.56;100050.83;105129;1268;101402;-79
2023/10/15 00:18:10;;;;;;;7.90;2.80;;;;;;;10.75;80.71;100052.29;105112;1270;100575;-80
2023/10/15 00:21:02;;;;;;;6.90;2.50;;;;;;;10.71;80.80;100050.62;105095;1267;98852;-78
2023/10/15 00:23:47;;;;;;;9.80;2.70;;;;;;;10.69;80.92;100048.75;104971;1271;98064;-76
2023/10/15 00:26:35;;;;;;;8.50;2.10;;;;;;;10.68;81.03;100051.68;105231;1270;99564;-79
2023/10/15 00:29:22;;;;;;;5.60;1.80;;;;;;;10.67;80.95;100054.69;105139;1267;102650;-79
2023/10/15 00:32:07;;;;;;;9.10;2.10;;;;;;;10.64;80.76;100061.85;105145;1267;99139;-77
2023/10/15 00:34:53;;;;;;;5.80;2.30;;;;;;;10.62;80.82;100058.86;104988;1267;98868;-77
2023/10/15 00:37:40;;;;;;;7.40;2.50;;;;;;;10.60;80.97;100060.95;104607;1267;99165;-76
2023/10/15 00:40:27;;;;;;;6.50;2.70;;;;;;;10.56;81.16;100063.23;104655;1267;98573;-77
2023/10/15 00:43:17;;;;;;;6.40;2.10;;;;;;;10.52;80.93;100059.36;104578;1267;102569;-77
2023/10/15 00:46:06;;;;;;;6.40;2.10;;;;;;;10.48;81.32;100052.27;104607;1267;100381;-77
2023/10/15 00:49:09;;;;;;;7.00;2.20;;;;;;;10.45;81.26;100053.48;104661;1272;98039;-78
2023/10/15 00:51:55;;;;;;;7.00;2.20;;;;;;;10.40;81.36;100049.38;104715;1267;97978;-78
2023/10/15 00:54:41;;;;;;;11.40;2.40;;;;;;;10.37;81.48;100053.20;104557;1267;98610;-78
2023/10/15 00:57:26;;;;;;;6.70;2.10;;;;;;;10.34;81.46;100055.90;104878;1273;101888;-78
2023/10/15 01:01:00;;;;;;;5.10;2.30;;;;;;;10.30;81.62;100059.84;104740;1270;99297;-77
2023/10/15 01:03:31;;;;;;;6.60;2.30;;;;;;;10.26;81.69;100060.39;104718;1267;98133;-79
2023/10/15 01:09:29;;;;;;;8.80;2.80;;;;;;;10.12;81.72;100054.95;104726;1267;98899;-79
2023/10/15 01:12:30;;;;;;;5.90;2.10;;;;;;;10.03;81.87;100052.45;104746;1270;102907;-77
2023/10/15 01:15:16;;;;;;;9.90;2.30;;;;;;;9.98;82.14;100052.60;104749;1267;100441;-78
2023/10/15 01:18:07;;;;;;;10.90;2.60;;;;;;;9.93;82.32;100055.05;104750;1268;98412;-79
2023/10/15 01:20:52;;;;;;;5.50;2.20;;;;;;;9.90;82.52;100058.86;104722;1267;97994;-78
2023/10/15 01:26:26;;;;;;;9.50;2.30;;;;;;;9.85;82.66;100067.71;104850;1267;102121;-77
2023/10/15 01:29:18;;;;;;;5.60;1.90;;;;;;;9.80;82.67;100067.13;104751;1273;99377;-79
2023/10/15 01:32:10;;;;;;;7.20;2.20;;;;;;;9.74;82.95;100068.83;104759;1270;98743;-78
2023/10/15 01:34:59;;;;;;;5.40;2.10;;;;;;;9.70;82.84;100070.42;104875;1270;98857;-78
2023/10/15 01:37:59;;;;;;;4.60;1.80;;;;;;;9.64;83.00;100072.00;104773;1267;98032;-78
2023/10/15 01:40:44;;;;;;;6.40;1.70;;;;;;;9.61;83.21;100073.46;104811;1267;102234;-78
2023/10/15 01:43:32;;;;;;;7.90;2.40;;;;;;;9.58;83.26;100072.06;104761;1270;100377;-77
2023/10/15 01:49:31;;;;;;;6.70;2.10;;;;;;;9.53;83.49;100069.02;104651;1273;97992;-77
2023/10/15 01:52:29;;;;;;;3.90;1.50;;;;;;;9.53;83.72;100069.75;104605;1274;99266;-77
2023/10/15 01:55:17;;;;;;;5.90;2.30;;;;;;;9.51;83.80;100072.27;104707;1267;101996;-77
2023/10/15 01:58:05;;;;;;;7.80;1.90;;;;;;;9.51;84.06;100074.63;104753;1267;100180;-77
2023/10/15 02:00:51;;;;;;;10.00;3.00;;;;;;;9.48;83.77;100072.27;104792;1271;98006;-78
2023/10/15 02:03:37;;;;;;;7.50;1.80;;;;;;;9.45;83.90;100071.13;104837;1270;98861;-77
2023/10/15 02:06:25;;;;;;;8.80;2.00;;;;;;;9.41;83.86;100074.99;104725;1266;98618;-78
2023/10/15 02:09:13;;;;;;;6.40;1.80;;;;;;;9.36;83.66;100077.55;104775;1266;101945;-78
2023/10/15 02:11:58;;;;;;;5.20;1.70;;;;;;;9.31;83.70;100078.48;105303;1266;99855;-77
2023/10/15 02:14:47;;;;;;;7.60;2.10;;;;;;;9.31;83.86;100076.31;104752;1265;97997;-77
2023/10/15 02:17:34;;;;;;;7.50;2.40;;;;;;;9.30;83.91;100079.66;104961;1267;98068;-79
2023/10/15 02:20:42;;;;;;;7.60;2.10;;;;;;;9.28;83.74;100079.73;104717;1270;98060;-78
2023/10/15 02:23:32;;;;;;;9.10;1.60;;;;;;;9.28;84.07;100080.71;104715;1270;101274;-78
2023/10/15 02:26:23;;;;;;;8.20;2.00;;;;;;;9.25;84.02;100081.75;106392;1267;99876;-76
2023/10/15 02:29:27;;;;;;;6.00;2.10;;;;;;;9.23;84.09;100083.30;104805;1270;98044;-77
2023/10/15 02:32:21;;;;;;;7.40;1.80;;;;;;;9.19;84.08;100088.53;105030;1267;147645;-80
2023/10/15 02:35:12;;;;;;;11.90;1.80;;;;;;;9.18;84.12;100088.67;105203;1265;99638;-79
2023/10/15 02:37:59;;;;;;;4.40;1.60;;;;;;;9.17;84.42;100090.47;105088;1269;102157;-78
2023/10/15 02:44:12;;;;;;;10.30;2.00;;;;;;;9.15;84.34;100084.24;104903;1267;99278;-77
2023/10/15 02:47:19;;;;;;;6.20;2.00;;;;;;;9.13;84.30;100083.58;104957;1267;97908;-78
2023/10/15 02:50:05;;;;;;;7.80;2.00;;;;;;;9.12;84.35;100079.98;105152;1270;98101;-79
2023/10/15 02:52:54;;;;;;;11.10;2.90;;;;;;;9.13;84.50;100083.61;105213;1267;101406;-80
2023/10/15 02:55:47;;;;;;;7.30;2.10;;;;;;;9.13;84.53;100086.11;105140;1270;99196;-78
2023/10/15 02:58:32;;;;;;;10.60;2.80;;;;;;;9.13;84.36;100087.55;105085;1267;98012;-79
2023/10/15 03:01:19;;;;;;;5.00;2.30;;;;;;;9.13;84.58;100089.81;105084;1273;97988;-79
2023/10/15 03:04:09;;;;;;;5.90;2.20;;;;;;;9.14;84.68;100086.53;104821;1273;98369;-78
2023/10/15 03:06:58;;;;;;;5.20;1.50;;;;;;;9.13;84.55;100085.45;104655;1267;101364;-79
2023/10/15 03:09:53;;;;;;;5.30;1.90;;;;;;;9.13;84.53;100079.73;104875;1267;100099;-78
2023/10/15 03:12:44;;;;;;;6.70;1.90;;;;;;;9.11;84.45;100083.17;104751;1272;98493;-77
2023/10/15 03:15:29;;;;;;;7.40;2.40;;;;;;;9.07;84.57;100083.86;104701;1267;97996;-77
2023/10/15 03:18:28;;;;;;;7.70;2.40;;;;;;;9.06;84.89;100082.05;104667;1267;97940;-77
2023/10/15 03:22:01;;;;;;;9.40;2.60;;;;;;;9.03;84.77;100084.86;104678;1267;101966;-78
2023/10/15 03:24:29;;;;;;;7.30;2.20;;;;;;;8.99;85.02;100089.00;104851;1270;101434;-78
2023/10/15 03:27:22;;;;;;;8.10;2.60;;;;;;;8.95;85.13;100086.48;104742;1267;98136;-78
2023/10/15 03:30:10;;;;;;;6.10;1.70;;;;;;;8.91;85.13;100085.41;105257;1267;97920;-78
2023/10/15 03:33:00;;;;;;;11.40;2.10;;;;;;;8.87;85.54;100085.87;104720;1267;97988;-77
2023/10/15 03:35:54;;;;;;;6.90;1.70;;;;;;;8.83;85.65;100090.76;104759;1267;102670;-77
2023/10/15 03:38:39;;;;;;;7.30;1.70;;;;;;;8.80;85.71;100090.96;104650;1267;100052;-77
2023/10/15 03:41:29;;;;;;;8.00;1.90;;;;;;;8.78;85.77;100095.49;104743;1273;99044;-77
2023/10/15 03:44:23;;;;;;;11.20;2.50;;;;;;;8.77;86.03;100097.75;104611;1268;98102;-78
2023/10/15 03:47:09;;;;;;;5.70;2.10;;;;;;;8.76;86.15;100095.84;104752;1271;98515;-77
2023/10/15 03:49:55;;;;;;;11.20;2.40;;;;;;;8.72;86.42;100092.01;104796;1271;103384;-80
2023/10/15 03:52:44;;;;;;;8.20;2.20;;;;;;;8.71;86.64;100088.79;104748;1271;99107;-78
2023/10/15 03:55:30;;;;;;;7.10;2.10;;;;;;;8.68;86.41;100090.89;104763;1270;99374;-78
2023/10/15 03:58:18;;;;;;;4.90;2.20;;;;;;;8.65;86.64;100087.19;104793;1270;98679;-79
2023/10/15 04:01:15;;;;;;;8.40;2.60;;;;;;;8.61;86.61;100084.06;104809;1270;98537;-80
2023/10/15 04:04:02;;;;;;;10.80;3.00;;;;;;;8.59;86.89;100090.63;104781;1270;102711;-78
2023/10/15 04:06:53;;;;;;;7.40;2.90;;;;;;;8.55;86.96;100089.99;104611;1269;99845;-76
2023/10/15 04:09:38;;;;;;;5.50;2.50;;;;;;;8.52;87.25;100091.08;104763;1267;99138;-78
2023/10/15 04:12:27;;;;;;;11.10;2.30;;;;;;;8.50;87.20;100091.09;104695;1270;97976;-78
2023/10/15 04:15:17;;;;;;;3.80;2.10;;;;;;;8.49;87.40;100088.92;104729;1270;98506;-76
2023/10/15 04:18:03;;;;;;;8.90;2.30;;;;;;;8.50;87.40;100088.13;104766;1267;102466;-78
2023/10/15 04:20:53;;;;;;;7.90;2.80;;;;;;;8.47;87.28;100093.11;104765;1267;100140;-78
2023/10/15 04:23:39;;;;;;;7.80;2.10;;;;;;;8.42;87.53;100093.65;104761;1267;98534;-78
2023/10/15 04:26:29;;;;;;;9.90;3.20;;;;;;;8.38;87.54;100090.23;104804;1273;98092;-78
2023/10/15 04:29:17;;;;;;;6.40;2.10;;;;;;;8.35;87.64;100088.51;107588;1265;95991;-78
2023/10/15 04:32:04;;;;;;;10.50;3.40;;;;;;;8.35;87.80;100085.83;104971;1267;102680;-77
2023/10/15 04:34:52;;;;;;;9.00;2.90;;;;;;;8.34;87.85;100089.15;104673;1266;99117;-77
2023/10/15 04:37:38;;;;;;;10.60;2.10;;;;;;;8.33;87.91;100088.02;104736;1269;98592;-79
2023/10/15 04:40:23;;;;;;;9.90;3.20;;;;;;;8.31;88.25;100088.98;104852;1270;97975;-79
2023/10/15 04:43:09;;;;;;;11.30;2.80;;;;;;;8.30;88.26;100086.09;104768;1268;98497;-78
2023/10/15 04:45:57;;;;;;;7.00;2.30;;;;;;;8.29;88.22;100082.54;104708;1283;101376;-78
2023/10/15 04:48:44;;;;;;;6.80;2.40;;;;;;;8.25;88.38;100085.61;104517;1267;100919;-78
2023/10/15 04:51:42;;;;;;;8.60;2.10;;;;;;;8.23;88.45;100084.85;104576;1270;99019;-77
2023/10/15 04:54:27;;;;;;;6.10;2.30;;;;;;;8.22;88.56;100080.15;104502;1267;98003;-78
2023/10/15 04:57:13;;;;;;;9.10;2.30;;;;;;;8.21;88.74;100079.69;104569;1269;101968;-78
2023/10/15 04:59:58;;;;;;;5.90;2.50;;;;;;;8.20;88.86;100079.64;104688;1267;102958;-78
2023/10/15 05:02:44;;;;;;;11.20;2.70;;;;;;;8.19;88.84;100079.55;104857;1267;99763;-78
2023/10/15 05:05:31;;;;;;;8.30;2.20;;;;;;;8.17;88.90;100083.27;104876;1265;98713;-79
2023/10/15 05:08:24;;;;;;;8.40;2.50;;;;;;;8.16;89.00;100088.19;105179;1267;99244;-76
2023/10/15 05:11:10;;;;;;;7.80;2.40;;;;;;;8.15;89.23;100087.86;104752;1270;98578;-77
2023/10/15 05:13:55;;;;;;;6.40;2.00;;;;;;;8.15;89.09;100085.99;104714;1266;103174;-77
2023/10/15 05:16:41;;;;;;;10.80;2.50;;;;;;;8.13;89.14;100085.32;104707;1267;100128;-77
2023/10/15 05:19:28;;;;;;;7.60;2.00;;;;;;;8.12;89.25;100085.76;104716;1267;99269;-79
2023/10/15 05:22:13;;;;;;;6.70;2.20;;;;;;;8.12;89.34;100085.30;104688;1270;98006;-77
2023/10/15 05:24:59;;;;;;;9.50;2.80;;;;;;;8.10;89.39;100085.69;105045;1267;97869;-79
2023/10/15 05:27:45;;;;;;;11.00;2.20;;;;;;;8.08;89.70;100086.08;105192;1270;102068;-79
2023/10/15 05:30:30;;;;;;;9.50;2.00;;;;;;;8.06;89.87;100095.76;105103;1267;99121;-79
2023/10/15 05:33:16;;;;;;;13.00;2.70;;;;;;;8.05;90.02;100104.08;105031;1270;99105;-79
2023/10/15 05:36:01;;;;;;;6.50;2.00;;;;;;;8.04;90.07;100109.02;105082;1267;98041;-79
2023/10/15 05:38:47;;;;;;;15.30;3.60;;;;;;;8.03;90.25;100111.92;105089;1270;98439;-78
2023/10/15 05:41:32;;;;;;;7.20;2.40;;;;;;;8.02;90.42;100117.00;105155;1267;102227;-78
2023/10/15 05:44:18;;;;;;;7.10;1.90;;;;;;;8.03;90.56;100122.77;105182;1270;100440;-78
2023/10/15 05:47:04;;;;;;;9.70;3.50;;;;;;;8.05;90.56;100126.79;105042;1270;99096;-77
2023/10/15 05:49:50;;;;;;;7.20;2.40;;;;;;;8.06;90.57;100132.90;104710;1267;97955;-77
2023/10/15 05:52:35;;;;;;;6.70;2.50;;;;;;;8.04;90.82;100137.02;104684;1267;98762;-78
2023/10/15 05:55:21;;;;;;;9.30;3.20;;;;;;;8.05;90.86;100145.36;105221;1270;101347;-79
2023/10/15 05:58:08;;;;;;;7.80;2.30;;;;;;;8.05;90.84;100148.73;105308;1266;99184;-79
2023/10/15 06:00:53;;;;;;;7.40;2.30;;;;;;;8.06;90.96;100153.73;105153;1270;97962;-79
2023/10/15 06:03:40;;;;;;;7.80;2.40;;;;;;;8.07;91.07;100153.44;105202;1270;98062;-79
2023/10/15 06:06:26;;;;;;;6.40;2.40;;;;;;;8.08;90.95;100157.55;105238;1265;98576;-78
2023/10/15 06:09:11;;;;;;;7.50;2.30;;;;;;;8.09;91.01;100159.05;104811;1270;101704;-78
2023/10/15 06:11:57;;;;;;;5.90;2.30;;;;;;;8.10;91.04;100163.95;104787;1271;99232;-77
2023/10/15 06:14:43;;;;;;;8.30;2.70;;;;;;;8.11;90.95;100167.47;104775;1268;98877;-78
2023/10/15 06:17:28;;;;;;;10.10;2.60;;;;;;;8.13;91.18;100170.67;104809;1266;97966;-78
2023/10/15 06:20:14;;;;;;;7.00;2.70;;;;;;;8.15;91.31;100170.09;105084;1267;98870;-79
2023/10/15 06:23:03;;;;;;;8.50;2.50;;;;;;;8.19;91.32;100176.23;105134;1270;101311;-78
2023/10/15 06:25:49;;;;;;;11.00;2.40;;;;;;;8.22;91.31;100173.90;105097;1268;100007;-79
2023/10/15 06:28:35;;;;;;;8.00;2.40;;;;;;;8.24;91.11;100175.36;105099;1268;99600;-78
2023/10/15 06:31:20;;;;;;;11.80;2.70;;;;;;;8.28;91.02;100177.63;105273;1270;98381;-79
2023/10/15 06:34:08;;;;;;;7.80;1.80;;;;;;;8.32;91.06;100187.14;105264;1267;97898;-78
2023/10/15 06:36:54;;;;;;;11.60;2.80;;;;;;;8.36;91.03;100190.83;105144;1267;102702;-79
2023/10/15 06:39:40;;;;;;;14.90;8.00;;;;;;;8.41;90.82;100197.77;104989;1270;99277;-77
2023/10/15 06:42:26;;;;;;;8.10;4.80;;;;;;;8.42;90.58;100192.20;104876;1267;98412;-79
2023/10/15 06:45:16;;;;;;;11.70;3.10;;;;;;;8.45;90.63;100194.05;104676;1273;98054;-77
2023/10/15 06:48:02;;;;;;;8.50;2.60;;;;;;;8.48;90.68;100200.41;105422;1266;98435;-78
2023/10/15 06:50:53;;;;;;;11.70;2.80;;;;;;;8.53;90.63;100201.59;104975;1268;101400;-79
2023/10/15 06:53:38;;;;;;;10.60;2.60;;;;;;;8.59;90.61;100207.85;105082;1267;99085;-79
2023/10/15 06:56:24;;;;;;;6.80;2.40;;;;;;;8.64;90.40;100212.25;104961;1267;99299;-79
2023/10/15 06:59:11;;;;;;;9.40;2.50;;;;;;;8.66;90.39;100220.83;105117;1270;98576;-88
2023/10/15 07:01:58;;;;;;;11.20;3.60;;;;;;;8.69;90.10;100221.79;105820;1271;98020;-86
2023/10/15 07:04:44;;;;;;;5.70;1.90;;;;;;;8.72;89.83;100223.41;105464;1268;101445;-87
2023/10/15 07:07:31;;;;;;;9.70;2.60;;;;;;;8.74;89.75;100223.08;105662;1270;99193;-86
2023/10/15 07:10:17;;;;;;;10.20;2.80;;;;;;;8.76;89.58;100226.41;105515;1267;98080;-82
2023/10/15 07:13:03;;;;;;;9.40;2.40;;;;;;;8.79;89.86;100229.24;105777;1267;97199;-81
2023/10/15 07:15:49;;;;;;;8.80;2.60;;;;;;;8.82;89.18;100228.30;106157;1267;97962;-87
2023/10/15 07:18:35;;;;;;;10.90;3.40;;;;;;;8.83;88.87;100233.40;106149;1267;103674;-88
2023/10/15 07:21:21;;;;;;;11.00;3.30;;;;;;;8.84;88.62;100236.84;105893;1270;99439;-82
2023/10/15 07:24:11;;;;;;;10.10;3.10;;;;;;;8.85;88.19;100236.20;106298;1267;100091;-89
2023/10/15 07:30:41;;;;;;;8.50;3.20;;;;;;;8.96;88.17;100239.01;105720;1267;97872;-89
2023/10/15 07:33:27;;;;;;;10.50;2.50;;;;;;;8.99;87.81;100237.33;105536;1274;101472;-79
2023/10/15 07:36:12;;;;;;;12.00;2.50;;;;;;;8.99;86.78;100239.09;105609;1267;99107;-80
2023/10/15 07:38:57;;;;;;;7.40;2.40;;;;;;;8.98;86.90;100241.05;104850;1274;98559;-78
2023/10/15 07:41:45;;;;;;;8.10;2.10;;;;;;;9.00;86.93;100239.30;104867;1270;98122;-80
2023/10/15 07:44:31;;;;;;;10.30;2.50;;;;;;;9.02;86.44;100238.92;105031;1267;97989;-78
2023/10/15 07:47:16;;;;;;;7.60;2.60;;;;;;;9.05;86.65;100237.69;105675;1267;102069;-84
2023/10/15 07:50:03;;;;;;;7.90;2.40;;;;;;;9.11;86.60;100232.30;105988;1267;99202;-80
2023/10/15 07:52:50;;;;;;;8.40;2.40;;;;;;;9.14;86.54;100233.83;105661;1272;97877;-84
2023/10/15 07:55:36;;;;;;;7.80;2.30;;;;;;;9.16;86.08;100235.61;105907;1270;98029;-86
2023/10/15 07:58:23;;;;;;;11.30;2.70;;;;;;;9.16;85.81;100237.17;105599;1267;97959;-87
2023/10/15 08:01:10;;;;;;;6.80;2.40;;;;;;;9.16;85.49;100236.27;105743;1267;102490;-88
2023/10/15 08:03:59;;;;;;;11.10;2.20;;;;;;;9.16;85.09;100237.39;105369;1267;99200;-81
2023/10/15 08:06:44;;;;;;;9.00;2.00;;;;;;;9.15;84.80;100238.36;105727;1273;107093;-83
2023/10/15 08:09:32;;;;;;;5.50;2.30;;;;;;;9.19;84.97;100239.61;105453;1267;98431;-79
2023/10/15 08:12:18;;;;;;;9.50;2.60;;;;;;;9.26;85.12;100237.39;105298;1267;98479;-80
2023/10/15 08:15:04;;;;;;;8.60;1.80;;;;;;;9.33;84.75;100237.55;105453;1267;102161;-79
2023/10/15 08:17:50;;;;;;;5.50;2.00;;;;;;;9.33;83.99;100232.70;105274;1270;99809;-79
2023/10/15 08:20:35;;;;;;;6.90;2.10;;;;;;;9.36;83.78;100233.81;105735;1272;97994;-80
2023/10/15 08:23:21;;;;;;;9.50;2.30;;;;;;;9.37;83.46;100233.52;106033;1273;98145;-80
2023/10/15 08:26:06;;;;;;;10.60;2.40;;;;;;;9.39;83.21;100235.08;105509;1267;98525;-79
2023/10/15 08:28:52;;;;;;;5.90;2.40;;;;;;;9.41;83.23;100230.77;104879;1267;101380;-78
2023/10/15 08:31:38;;;;;;;8.70;2.20;;;;;;;9.43;83.05;100233.23;105153;1268;99173;-78
2023/10/15 08:34:23;;;;;;;10.20;2.30;;;;;;;9.46;82.94;100236.35;105253;1267;99006;-79
2023/10/15 08:37:10;;;;;;;7.70;2.40;;;;;;;9.48;82.85;100240.92;105094;1273;98055;-79
2023/10/15 08:39:55;;;;;;;11.30;2.90;;;;;;;9.48;82.75;100240.36;105247;1273;97974;-78
2023/10/15 08:42:50;;;;;;;7.10;2.20;;;;;;;9.48;82.79;100241.40;105184;1271;101399;-80
2023/10/15 08:45:36;;;;;;;5.00;1.90;;;;;;;9.51;82.79;100246.06;105238;1273;99431;-78
2023/10/15 08:48:25;;;;;;;7.70;2.00;;;;;;;9.52;82.63;100246.66;105123;1273;97965;-79
2023/10/15 08:51:13;;;;;;;7.50;2.10;;;;;;;9.48;82.22;100246.73;105404;1268;97948;-80
2023/10/15 08:54:02;;;;;;;9.90;3.60;;;;;;;9.45;82.20;100244.89;105126;1267;97885;-79
2023/10/15 08:56:48;;;;;;;7.30;2.30;;;;;;;9.42;82.25;100243.21;105121;1267;102309;-85
2023/10/15 08:59:35;;;;;;;10.00;2.80;;;;;;;9.43;82.72;100240.95;104776;1274;100142;-79
2023/10/15 09:02:22;;;;;;;6.40;2.10;;;;;;;9.46;82.76;100239.65;105032;1271;98778;-79
2023/10/15 09:05:08;;;;;;;8.70;2.00;;;;;;;9.49;82.58;100244.23;105080;1267;98205;-79
2023/10/15 09:07:56;;;;;;;8.50;3.00;;;;;;;9.49;82.61;100243.86;105377;1267;96801;-80
2023/10/15 09:10:42;;;;;;;8.90;2.50;;;;;;;9.52;82.94;100245.77;105809;1267;102570;-81
2023/10/15 09:13:30;;;;;;;11.20;2.50;;;;;;;9.56;82.78;100246.46;105448;1267;99167;-90
2023/10/15 09:16:15;;;;;;;9.30;3.10;;;;;;;9.58;82.39;100247.67;105556;1272;98085;-80
2023/10/15 09:19:06;;;;;;;9.80;2.30;;;;;;;9.59;82.32;100247.36;105782;1273;97968;-80
2023/10/15 09:21:52;;;;;;;;;;;;;;;9.57;82.32;100248.13;105333;1270;98531;-80
2023/10/15 09:24:38;;;;;;;7.20;2.90;;;;;;;9.55;82.22;100244.44;105486;1273;101346;-81
2023/10/15 09:27:24;;;;;;;9.50;3.30;;;;;;;9.57;82.45;100243.39;105687;1267;100656;-82
2023/10/15 09:30:18;;;;;;;11.10;2.30;;;;;;;9.62;82.81;100239.63;105708;1273;99010;-81
2023/10/15 09:33:12;;;;;;;8.10;2.30;;;;;;;9.68;82.83;100240.21;105785;1267;97996;-81
2023/10/15 09:35:58;;;;;;;9.80;2.00;;;;;;;9.71;82.91;100241.73;105808;1274;97878;-81
2023/10/15 09:38:45;;;;;;;7.00;2.60;;;;;;;9.75;82.54;100241.73;105882;1268;101434;-89
2023/10/15 09:41:33;;;;;;;10.20;3.00;;;;;;;9.82;82.92;100241.30;106006;1266;100241;-80
2023/10/15 09:44:19;;;;;;;8.70;3.00;;;;;;;9.85;82.63;100241.54;105142;1270;97981;-85
2023/10/15 09:47:11;;;;;;;7.60;2.60;;;;;;;9.88;82.33;100243.31;105625;1267;97990;-91
2023/10/15 09:50:06;;;;;;;6.60;2.90;;;;;;;9.86;81.52;100244.35;105516;1267;97981;-80
2023/10/15 09:52:56;;;;;;;4.50;2.40;;;;;;;9.81;80.94;100242.45;106830;1267;101480;-80
2023/10/15 09:55:43;;;;;;;6.90;2.60;;;;;;;9.78;81.06;100244.03;105723;1270;100450;-84
2023/10/15 09:58:29;;;;;;;6.80;3.10;;;;;;;9.82;81.56;100244.14;105301;1267;97984;-84
2023/10/15 10:01:28;;;;;;;8.70;2.50;;;;;;;9.87;81.56;100245.23;105650;1267;98096;-81
2023/10/15 10:04:23;;;;;;;8.90;4.00;;;;;;;9.92;81.56;100246.25;105911;1267;97961;-80
2023/10/15 10:07:33;;;;;;;16.00;6.40;;;;;;;9.92;80.94;100241.70;106066;1267;102206;-80
2023/10/15 10:10:40;;;;;;;10.20;3.30;;;;;;;9.94;81.20;100242.91;105190;1270;99168;-86
2023/10/15 10:13:45;;;;;;;9.60;2.90;;;;;;;9.96;81.08;100245.32;105379;1267;98055;-86
2023/10/15 10:16:30;;;;;;;20.50;7.40;;;;;;;9.97;80.98;100244.64;105556;1272;97962;-85
2023/10/15 10:19:17;;;;;;;25.50;10.90;;;;;;;9.97;80.62;100241.80;105704;1270;98456;-87
2023/10/15 10:22:03;;;;;;;12.00;4.20;;;;;;;9.96;80.76;100241.02;105423;1267;101456;-89
2023/10/15 10:24:48;;;;;;;12.60;3.50;;;;;;;9.94;80.48;100235.98;105362;1270;100003;-78
2023/10/15 10:27:41;;;;;;;10.30;3.50;;;;;;;9.93;80.26;100235.77;105657;1267;97990;-78
2023/10/15 10:30:27;;;;;;;6.40;2.90;;;;;;;9.95;80.95;100233.20;105540;1273;98136;-78
2023/10/15 10:33:44;;;;;;;5.80;2.30;;;;;;;9.99;80.65;100233.98;105109;1267;98067;-87
2023/10/15 10:36:37;;;;;;;8.30;2.60;;;;;;;10.01;80.12;100228.86;105690;1270;102152;-78
2023/10/15 10:39:23;;;;;;;8.40;2.20;;;;;;;10.03;79.90;100227.84;105106;1267;99200;-79
2023/10/15 10:42:21;;;;;;;4.30;2.00;;;;;;;10.06;80.01;100224.58;105093;1270;97989;-77
2023/10/15 10:45:12;;;;;;;10.50;3.00;;;;;;;10.12;79.88;100226.20;105127;1267;98038;-79
2023/10/15 10:47:57;;;;;;;6.50;2.50;;;;;;;10.16;79.59;100224.90;105156;1267;97995;-78
2023/10/15 10:50:46;;;;;;;7.90;2.40;;;;;;;10.15;79.71;100221.90;105695;1269;110089;-78
2023/10/15 10:53:33;;;;;;;6.70;2.80;;;;;;;10.17;79.58;100226.86;105104;1267;99254;-87
2023/10/15 10:56:22;;;;;;;8.40;2.10;;;;;;;10.17;78.69;100224.05;105647;1270;100067;-88
2023/10/15 10:59:09;;;;;;;5.60;2.10;;;;;;;10.16;77.83;100226.52;105594;1267;97953;-91
2023/10/15 11:01:56;;;;;;;6.20;2.00;;;;;;;10.13;76.72;100221.84;105680;1267;98022;-86
2023/10/15 11:04:43;;;;;;;9.70;1.90;;;;;;;10.10;76.38;100224.38;105664;1268;101429;-87
2023/10/15 11:07:36;;;;;;;6.60;1.80;;;;;;;10.08;75.40;100222.34;105269;1267;100393;-85
2023/10/15 11:10:22;;;;;;;5.20;1.70;;;;;;;10.06;74.64;100220.84;105686;1271;99038;-81
2023/10/15 11:13:07;;;;;;;5.10;1.70;;;;;;;10.06;74.86;100219.45;105720;1273;97959;-78
2023/10/15 11:15:53;;;;;;;5.90;1.80;;;;;;;10.07;74.62;100217.02;105979;1267;97965;-80
2023/10/15 11:18:39;;;;;;;11.20;2.50;;;;;;;10.10;74.91;100218.50;105880;1268;101374;-80
2023/10/15 11:21:25;;;;;;;6.90;3.40;;;;;;;10.13;74.76;100219.48;106009;1266;100528;-80
2023/10/15 11:24:11;;;;;;;8.10;2.60;;;;;;;10.14;74.77;100215.70;106135;1267;98987;-80
2023/10/15 11:26:59;;;;;;;10.30;2.10;;;;;;;10.16;75.10;100215.35;105726;1267;97923;-82
2023/10/15 11:29:44;;;;;;;8.70;2.70;;;;;;;10.20;75.20;100211.55;106012;1267;97542;-81
2023/10/15 11:32:30;;;;;;;7.80;2.60;;;;;;;10.21;75.15;100208.76;105954;1270;101400;-81
2023/10/15 11:35:16;;;;;;;10.40;3.00;;;;;;;10.21;75.53;100208.29;105973;1274;99169;-81
2023/10/15 11:38:11;;;;;;;7.50;2.70;;;;;;;10.23;75.33;100209.81;106034;1267;99104;-81
2023/10/15 11:40:56;;;;;;;7.40;2.60;;;;;;;10.20;74.61;100207.36;105923;1267;97981;-81
2023/10/15 11:43:43;;;;;;;10.10;1.90;;;;;;;10.18;74.84;100213.64;105919;1267;97876;-81
2023/10/15 11:46:30;;;;;;;9.20;2.20;;;;;;;10.19;74.72;100210.92;105953;1267;101415;-81
2023/10/15 11:49:19;;;;;;;7.60;2.20;;;;;;;10.18;74.85;100209.40;105929;1268;99167;-79
2023/10/15 11:52:11;;;;;;;9.20;3.50;;;;;;;10.18;74.53;100208.37;106015;1270;99070;-82
2023/10/15 11:54:57;;;;;;;6.60;2.00;;;;;;;10.17;74.71;100209.60;105939;1267;98634;-79
2023/10/15 11:57:49;;;;;;;12.20;2.70;;;;;;;10.19;74.93;100209.32;105843;1273;98650;-81
2023/10/15 12:00:34;;;;;;;7.40;2.40;;;;;;;10.24;75.44;100209.58;105909;1267;102809;-79
2023/10/15 12:03:23;;;;;;;4.50;2.10;;;;;;;10.31;75.54;100209.55;105906;1267;99175;-82
2023/10/15 12:06:09;;;;;;;8.80;2.60;;;;;;;10.37;75.10;100212.17;105954;1267;97935;-81
2023/10/15 12:08:58;;;;;;;7.80;1.90;;;;;;;10.42;74.85;100207.91;105881;1272;98256;-81
2023/10/15 12:11:47;;;;;;;7.80;2.40;;;;;;;10.44;74.37;100213.93;106019;1267;96837;-84
2023/10/15 12:14:32;;;;;;;8.40;2.00;;;;;;;10.48;74.51;100213.26;105609;1267;101467;-85
2023/10/15 12:17:18;;;;;;;6.20;2.30;;;;;;;10.49;74.22;100211.33;104942;1267;99383;-85
2023/10/15 12:20:06;;;;;;;8.90;2.30;;;;;;;10.48;74.18;100211.27;105377;1271;98946;-85
2023/10/15 12:22:52;;;;;;;9.30;2.40;;;;;;;10.47;74.17;100212.27;105660;1267;98070;-87
2023/10/15 12:25:38;;;;;;;4.60;2.40;;;;;;;10.47;74.19;100216.76;105253;1267;98583;-82
2023/10/15 12:28:24;;;;;;;9.60;4.00;;;;;;;10.48;74.12;100214.79;105624;1269;103405;-81
2023/10/15 12:31:09;;;;;;;19.70;7.50;;;;;;;10.49;73.97;100214.17;105743;1267;99144;-81
2023/10/15 12:33:56;;;;;;;6.90;2.80;;;;;;;10.49;73.78;100212.42;105841;1267;99093;-92
2023/10/15 12:36:42;;;;;;;4.50;1.70;;;;;;;10.46;73.48;100210.15;105572;1267;96394;-80
2023/10/15 12:39:28;;;;;;;6.80;2.50;;;;;;;10.41;73.13;100208.42;105673;1270;98438;-83
2023/10/15 12:42:16;;;;;;;7.00;2.70;;;;;;;10.38;73.45;100210.45;105267;1267;101416;-83
2023/10/15 12:45:02;;;;;;;7.30;3.00;;;;;;;10.39;73.89;100210.83;105324;1267;100194;-87
2023/10/15 12:47:48;;;;;;;4.70;1.80;;;;;;;10.38;73.71;100209.13;105588;1268;97979;-88
2023/10/15 12:50:35;;;;;;;5.20;2.30;;;;;;;10.35;73.67;100211.30;105472;1270;98016;-85
2023/10/15 12:53:22;;;;;;;5.40;2.50;;;;;;;10.34;73.65;100210.06;105184;1273;97978;-85
2023/10/15 12:56:07;;;;;;;6.70;2.80;;;;;;;10.35;73.86;100209.73;105241;1267;102738;-84
2023/10/15 12:58:54;;;;;;;9.50;2.80;;;;;;;10.34;73.36;100208.29;105290;1273;99744;-85
2023/10/15 13:01:42;;;;;;;8.70;2.60;;;;;;;10.30;73.25;100206.45;105393;1267;99085;-83
2023/10/15 13:04:28;;;;;;;7.40;2.80;;;;;;;10.26;73.01;100206.16;105424;1270;97991;-81
2023/10/15 13:07:14;;;;;;;6.90;2.30;;;;;;;10.21;73.10;100203.90;105537;1267;98471;-82
2023/10/15 13:10:00;;;;;;;7.00;2.40;;;;;;;10.22;74.28;100206.19;105018;1268;101979;-81
2023/10/15 13:12:47;;;;;;;5.00;2.00;;;;;;;10.25;73.69;100204.14;105341;1267;100203;-81